sensor_id;sensor_type;location;lat;lon;timestamp;pressure;altitude;pressure_sealevel;temperature;humidity
76858;BME280;65830;0.000;0.000;2023-03-14T00:01:49;100203.22;;;5.80;43.39
76858;BME280;65830;0.000;0.000;2023-03-14T00:04:15;100197.56;;;5.86;43.29
76858;BME280;65830;0.000;0.000;2023-03-14T00:06:41;100194.75;;;5.89;42.96
76858;BME280;65830;0.000;0.000;2023-03-14T00:09:06;100196.41;;;5.90;43.31
76858;BME280;65830;0.000;0.000;2023-03-14T00:11:32;100183.09;;;5.79;43.41
76858;BME280;65830;0.000;0.000;2023-03-14T00:13:57;100187.63;;;5.77;43.36
76858;BME280;65830;0.000;0.000;2023-03-14T00:16:24;100189.59;;;5.73;43.84
76858;BME280;65830;0.000;0.000;2023-03-14T00:18:50;100178.66;;;5.80;44.08
76858;BME280;65830;0.000;0.000;2023-03-14T00:21:16;100178.00;;;5.76;43.84
76858;BME280;65830;0.000;0.000;2023-03-14T00:23:42;100173.88;;;5.57;44.13
76858;BME280;65830;0.000;0.000;2023-03-14T00:26:09;100166.75;;;5.60;44.41
76858;BME280;65830;0.000;0.000;2023-03-14T00:28:35;100158.63;;;5.63;43.71
76858;BME280;65830;0.000;0.000;2023-03-14T00:31:07;100171.63;;;5.66;43.91
76858;BME280;65830;0.000;0.000;2023-03-14T00:33:33;100163.16;;;5.46;44.43
76858;BME280;65830;0.000;0.000;2023-03-14T00:36:00;100156.28;;;5.15;45.06
76858;BME280;65830;0.000;0.000;2023-03-14T00:38:29;100152.44;;;5.21;44.70
76858;BME280;65830;0.000;0.000;2023-03-14T00:40:55;100146.28;;;4.91;46.10
76858;BME280;65830;0.000;0.000;2023-03-14T00:43:21;100148.28;;;5.02;45.93
76858;BME280;65830;0.000;0.000;2023-03-14T00:45:50;100138.91;;;5.12;45.87
76858;BME280;65830;0.000;0.000;2023-03-14T00:48:16;100148.28;;;5.02;46.37
76858;BME280;65830;0.000;0.000;2023-03-14T00:50:42;100136.09;;;5.15;46.24
76858;BME280;65830;0.000;0.000;2023-03-14T00:53:08;100136.81;;;5.03;45.83
76858;BME280;65830;0.000;0.000;2023-03-14T00:55:37;100132.22;;;5.07;45.70
76858;BME280;65830;0.000;0.000;2023-03-14T00:58:02;100128.00;;;5.04;45.76
76858;BME280;65830;0.000;0.000;2023-03-14T01:00:28;100123.66;;;5.03;45.55
76858;BME280;65830;0.000;0.000;2023-03-14T01:02:53;100119.38;;;5.16;45.65
76858;BME280;65830;0.000;0.000;2023-03-14T01:05:19;100113.72;;;5.08;45.83
76858;BME280;65830;0.000;0.000;2023-03-14T01:07:47;100111.84;;;5.10;46.04
76858;BME280;65830;0.000;0.000;2023-03-14T01:10:13;100106.97;;;5.18;45.87
76858;BME280;65830;0.000;0.000;2023-03-14T01:12:38;100115.44;;;5.24;45.50
76858;BME280;65830;0.000;0.000;2023-03-14T01:15:04;100102.44;;;5.21;45.09
76858;BME280;65830;0.000;0.000;2023-03-14T01:17:31;100100.78;;;5.20;45.25
76858;BME280;65830;0.000;0.000;2023-03-14T01:19:57;100101.69;;;5.18;45.63
76858;BME280;65830;0.000;0.000;2023-03-14T01:22:22;100098.91;;;5.22;45.60
76858;BME280;65830;0.000;0.000;2023-03-14T01:24:48;100097.00;;;5.24;45.40
76858;BME280;65830;0.000;0.000;2023-03-14T01:27:14;100088.53;;;5.18;45.87
76858;BME280;65830;0.000;0.000;2023-03-14T01:29:39;100095.03;;;5.13;45.94
76858;BME280;65830;0.000;0.000;2023-03-14T01:32:07;100091.94;;;5.21;45.64
76858;BME280;65830;0.000;0.000;2023-03-14T01:34:32;100099.16;;;5.17;45.35
76858;BME280;65830;0.000;0.000;2023-03-14T01:36:58;100095.22;;;5.24;45.58
76858;BME280;65830;0.000;0.000;2023-03-14T01:39:24;100097.69;;;5.27;45.50
76858;BME280;65830;0.000;0.000;2023-03-14T01:41:50;100095.59;;;5.18;45.85
76858;BME280;65830;0.000;0.000;2023-03-14T01:44:15;100093.06;;;5.16;45.48
76858;BME280;65830;0.000;0.000;2023-03-14T01:46:41;100092.97;;;5.18;45.54
76858;BME280;65830;0.000;0.000;2023-03-14T01:51:46;100091.19;;;5.04;45.89
76858;BME280;65830;0.000;0.000;2023-03-14T01:54:14;100089.03;;;5.25;45.74
76858;BME280;65830;0.000;0.000;2023-03-14T01:56:42;100077.06;;;5.05;46.47
76858;BME280;65830;0.000;0.000;2023-03-14T01:59:09;100080.00;;;5.15;46.23
76858;BME280;65830;0.000;0.000;2023-03-14T02:01:36;100077.66;;;5.10;46.33
76858;BME280;65830;0.000;0.000;2023-03-14T02:04:02;100084.13;;;5.19;45.79
76858;BME280;65830;0.000;0.000;2023-03-14T02:06:37;100079.16;;;5.14;46.18
76858;BME280;65830;0.000;0.000;2023-03-14T02:09:04;100073.53;;;4.92;46.55
76858;BME280;65830;0.000;0.000;2023-03-14T02:11:32;100074.44;;;4.91;46.51
76858;BME280;65830;0.000;0.000;2023-03-14T02:14:05;100077.81;;;4.78;46.99
76858;BME280;65830;0.000;0.000;2023-03-14T02:16:54;100071.44;;;4.97;46.37
76858;BME280;65830;0.000;0.000;2023-03-14T02:19:47;100072.31;;;4.97;46.44
76858;BME280;65830;0.000;0.000;2023-03-14T02:22:37;100064.97;;;4.88;46.76
76858;BME280;65830;0.000;0.000;2023-03-14T02:25:17;100063.56;;;4.97;46.68
76858;BME280;65830;0.000;0.000;2023-03-14T02:27:46;100066.66;;;5.04;46.48
76858;BME280;65830;0.000;0.000;2023-03-14T02:30:14;100066.19;;;4.97;47.01
76858;BME280;65830;0.000;0.000;2023-03-14T02:32:43;100074.44;;;5.05;46.13
76858;BME280;65830;0.000;0.000;2023-03-14T02:35:14;100069.47;;;5.01;46.74
76858;BME280;65830;0.000;0.000;2023-03-14T02:37:42;100072.78;;;5.04;46.38
76858;BME280;65830;0.000;0.000;2023-03-14T02:40:09;100070.69;;;5.09;46.03
76858;BME280;65830;0.000;0.000;2023-03-14T02:42:36;100067.13;;;5.10;45.98
76858;BME280;65830;0.000;0.000;2023-03-14T02:45:48;100068.25;;;5.06;46.28
76858;BME280;65830;0.000;0.000;2023-03-14T02:47:54;100070.03;;;4.91;47.09
76858;BME280;65830;0.000;0.000;2023-03-14T02:50:25;100078.56;;;4.81;46.83
76858;BME280;65830;0.000;0.000;2023-03-14T02:52:53;100080.19;;;4.97;46.53
76858;BME280;65830;0.000;0.000;2023-03-14T02:55:22;100081.78;;;5.00;46.42
76858;BME280;65830;0.000;0.000;2023-03-14T02:57:49;100084.22;;;5.03;47.13
76858;BME280;65830;0.000;0.000;2023-03-14T03:00:16;100077.19;;;5.04;47.06
76858;BME280;65830;0.000;0.000;2023-03-14T03:02:41;100079.25;;;4.98;47.38
76858;BME280;65830;0.000;0.000;2023-03-14T03:05:07;100074.34;;;4.92;47.75
76858;BME280;65830;0.000;0.000;2023-03-14T03:07:33;100072.09;;;4.86;47.94
76858;BME280;65830;0.000;0.000;2023-03-14T03:09:59;100081.41;;;4.92;47.27
76858;BME280;65830;0.000;0.000;2023-03-14T03:12:24;100087.22;;;4.83;47.96
76858;BME280;65830;0.000;0.000;2023-03-14T03:14:50;100093.00;;;4.73;48.30
76858;BME280;65830;0.000;0.000;2023-03-14T03:17:15;100089.31;;;4.62;48.50
76858;BME280;65830;0.000;0.000;2023-03-14T03:19:41;100084.41;;;4.86;48.70
76858;BME280;65830;0.000;0.000;2023-03-14T03:22:09;100086.47;;;4.81;48.54
76858;BME280;65830;0.000;0.000;2023-03-14T03:24:35;100078.66;;;4.93;48.28
76858;BME280;65830;0.000;0.000;2023-03-14T03:27:01;100082.72;;;4.99;47.87
76858;BME280;65830;0.000;0.000;2023-03-14T03:29:26;100076.91;;;4.94;47.77
76858;BME280;65830;0.000;0.000;2023-03-14T03:31:52;100082.53;;;4.88;47.96
76858;BME280;65830;0.000;0.000;2023-03-14T03:34:18;100075.03;;;4.82;48.75
76858;BME280;65830;0.000;0.000;2023-03-14T03:36:47;100069.53;;;4.70;48.86
76858;BME280;65830;0.000;0.000;2023-03-14T03:39:13;100077.03;;;4.62;48.64
76858;BME280;65830;0.000;0.000;2023-03-14T03:41:38;100078.63;;;4.65;48.33
76858;BME280;65830;0.000;0.000;2023-03-14T03:44:04;100081.53;;;4.60;48.03
76858;BME280;65830;0.000;0.000;2023-03-14T03:46:31;100074.13;;;4.52;47.83
76858;BME280;65830;0.000;0.000;2023-03-14T03:48:57;100081.13;;;4.52;48.26
76858;BME280;65830;0.000;0.000;2023-03-14T03:51:24;100073.75;;;4.58;47.62
76858;BME280;65830;0.000;0.000;2023-03-14T03:53:50;100074.94;;;4.53;48.33
76858;BME280;65830;0.000;0.000;2023-03-14T03:56:20;100075.78;;;4.53;48.18
76858;BME280;65830;0.000;0.000;2023-03-14T03:58:46;100071.56;;;4.51;48.90
76858;BME280;65830;0.000;0.000;2023-03-14T04:01:11;100073.66;;;4.60;47.81
76858;BME280;65830;0.000;0.000;2023-03-14T04:03:38;100071.78;;;4.62;47.82
76858;BME280;65830;0.000;0.000;2023-03-14T04:06:05;100065.34;;;4.52;48.97
76858;BME280;65830;0.000;0.000;2023-03-14T04:08:33;100058.47;;;4.35;49.90
76858;BME280;65830;0.000;0.000;2023-03-14T04:10:59;100060.13;;;4.22;50.36
76858;BME280;65830;0.000;0.000;2023-03-14T04:13:43;100052.69;;;4.14;50.57
76858;BME280;65830;0.000;0.000;2023-03-14T04:16:11;100060.00;;;4.09;50.54
76858;BME280;65830;0.000;0.000;2023-03-14T04:18:39;100055.09;;;4.03;51.43
76858;BME280;65830;0.000;0.000;2023-03-14T04:21:05;100055.25;;;4.00;51.64
76858;BME280;65830;0.000;0.000;2023-03-14T04:23:41;100053.91;;;3.92;51.75
76858;BME280;65830;0.000;0.000;2023-03-14T04:26:06;100046.56;;;3.83;51.90
76858;BME280;65830;0.000;0.000;2023-03-14T04:28:33;100048.75;;;3.91;52.05
76858;BME280;65830;0.000;0.000;2023-03-14T04:31:06;100048.66;;;3.92;51.88
76858;BME280;65830;0.000;0.000;2023-03-14T04:33:31;100045.94;;;3.94;51.90
76858;BME280;65830;0.000;0.000;2023-03-14T04:35:57;100041.38;;;3.97;51.83
76858;BME280;65830;0.000;0.000;2023-03-14T04:38:23;100037.72;;;4.00;51.93
76858;BME280;65830;0.000;0.000;2023-03-14T04:40:50;100046.81;;;3.94;51.81
76858;BME280;65830;0.000;0.000;2023-03-14T04:43:18;100038.94;;;3.94;52.14
76858;BME280;65830;0.000;0.000;2023-03-14T04:45:48;100045.25;;;3.90;51.81
76858;BME280;65830;0.000;0.000;2023-03-14T04:48:14;100039.09;;;3.91;52.18
76858;BME280;65830;0.000;0.000;2023-03-14T04:50:40;100033.84;;;3.91;52.08
76858;BME280;65830;0.000;0.000;2023-03-14T04:53:06;100050.09;;;3.98;51.72
76858;BME280;65830;0.000;0.000;2023-03-14T04:55:32;100059.44;;;4.18;51.43
76858;BME280;65830;0.000;0.000;2023-03-14T04:57:58;100058.41;;;4.36;50.94
76858;BME280;65830;0.000;0.000;2023-03-14T05:00:24;100052.09;;;4.39;50.34
76858;BME280;65830;0.000;0.000;2023-03-14T05:03:16;100057.53;;;4.36;50.76
76858;BME280;65830;0.000;0.000;2023-03-14T05:06:04;100062.03;;;4.34;50.39
76858;BME280;65830;0.000;0.000;2023-03-14T05:08:44;100064.97;;;4.44;50.40
76858;BME280;65830;0.000;0.000;2023-03-14T05:11:29;100064.81;;;4.47;50.04
76858;BME280;65830;0.000;0.000;2023-03-14T05:14:20;100073.25;;;4.52;49.89
76858;BME280;65830;0.000;0.000;2023-03-14T05:16:58;100077.50;;;4.54;50.01
76858;BME280;65830;0.000;0.000;2023-03-14T05:19:37;100069.75;;;4.82;49.57
76858;BME280;65830;0.000;0.000;2023-03-14T05:22:11;100073.66;;;6.02;47.30
76858;BME280;65830;0.000;0.000;2023-03-14T05:25:06;100074.38;;;5.35;47.44
76858;BME280;65830;0.000;0.000;2023-03-14T05:28:01;100077.66;;;4.96;48.24
76858;BME280;65830;0.000;0.000;2023-03-14T05:31:05;100079.78;;;4.75;49.02
76858;BME280;65830;0.000;0.000;2023-03-14T05:33:46;100077.81;;;4.64;49.71
76858;BME280;65830;0.000;0.000;2023-03-14T05:36:30;100078.56;;;4.66;49.09
76858;BME280;65830;0.000;0.000;2023-03-14T05:39:12;100075.47;;;4.74;49.34
76858;BME280;65830;0.000;0.000;2023-03-14T05:41:47;100079.47;;;4.65;49.30
76858;BME280;65830;0.000;0.000;2023-03-14T05:44:44;100079.09;;;4.71;49.12
76858;BME280;65830;0.000;0.000;2023-03-14T05:47:19;100073.97;;;4.84;48.52
76858;BME280;65830;0.000;0.000;2023-03-14T05:49:56;100070.13;;;4.90;47.81
76858;BME280;65830;0.000;0.000;2023-03-14T05:52:47;100078.78;;;4.92;48.10
76858;BME280;65830;0.000;0.000;2023-03-14T05:55:22;100074.44;;;4.91;48.02
76858;BME280;65830;0.000;0.000;2023-03-14T05:58:06;100076.91;;;4.94;48.06
76858;BME280;65830;0.000;0.000;2023-03-14T06:01:05;100079.53;;;4.94;47.95
76858;BME280;65830;0.000;0.000;2023-03-14T06:03:57;100078.94;;;5.03;47.73
76858;BME280;65830;0.000;0.000;2023-03-14T06:06:23;100073.53;;;4.92;48.31
76858;BME280;65830;0.000;0.000;2023-03-14T06:08:49;100072.41;;;4.96;48.32
76858;BME280;65830;0.000;0.000;2023-03-14T06:11:15;100068.16;;;5.08;48.03
76858;BME280;65830;0.000;0.000;2023-03-14T06:13:40;100072.69;;;5.20;47.57
76858;BME280;65830;0.000;0.000;2023-03-14T06:16:13;100072.28;;;5.26;47.36
76858;BME280;65830;0.000;0.000;2023-03-14T06:18:47;100077.19;;;5.18;47.17
76858;BME280;65830;0.000;0.000;2023-03-14T06:21:17;100062.88;;;5.36;47.16
76858;BME280;65830;0.000;0.000;2023-03-14T06:23:43;100061.47;;;5.45;47.10
76858;BME280;65830;0.000;0.000;2023-03-14T06:26:09;100060.44;;;5.48;46.84
76858;BME280;65830;0.000;0.000;2023-03-14T06:28:37;100056.19;;;5.60;46.61
76858;BME280;65830;0.000;0.000;2023-03-14T06:31:03;100055.97;;;5.63;46.17
76858;BME280;65830;0.000;0.000;2023-03-14T06:33:35;100053.06;;;5.67;46.31
76858;BME280;65830;0.000;0.000;2023-03-14T06:36:01;100053.72;;;5.71;46.35
76858;BME280;65830;0.000;0.000;2023-03-14T06:38:27;100058.09;;;5.85;46.12
76858;BME280;65830;0.000;0.000;2023-03-14T06:40:54;100063.06;;;5.89;46.05
76858;BME280;65830;0.000;0.000;2023-03-14T06:43:30;100065.38;;;5.94;46.25
76858;BME280;65830;0.000;0.000;2023-03-14T06:45:55;100067.97;;;5.95;46.55
76858;BME280;65830;0.000;0.000;2023-03-14T06:48:21;100070.00;;;6.05;46.19
76858;BME280;65830;0.000;0.000;2023-03-14T06:50:51;100065.25;;;6.10;46.07
76858;BME280;65830;0.000;0.000;2023-03-14T06:53:17;100060.75;;;6.12;45.86
76858;BME280;65830;0.000;0.000;2023-03-14T06:55:43;100057.09;;;6.27;46.02
76858;BME280;65830;0.000;0.000;2023-03-14T06:58:09;100055.13;;;6.31;45.45
76858;BME280;65830;0.000;0.000;2023-03-14T07:00:40;100050.16;;;6.39;46.02
76858;BME280;65830;0.000;0.000;2023-03-14T07:03:06;100041.94;;;6.31;46.40
76858;BME280;65830;0.000;0.000;2023-03-14T07:05:37;100045.31;;;6.46;46.03
76858;BME280;65830;0.000;0.000;2023-03-14T07:08:06;100038.09;;;6.62;45.54
76858;BME280;65830;0.000;0.000;2023-03-14T07:10:31;100034.91;;;6.57;45.00
76858;BME280;65830;0.000;0.000;2023-03-14T07:12:57;100035.00;;;6.55;45.26
76858;BME280;65830;0.000;0.000;2023-03-14T07:15:25;100031.84;;;6.63;45.20
76858;BME280;65830;0.000;0.000;2023-03-14T07:17:56;100030.81;;;6.79;45.02
76858;BME280;65830;0.000;0.000;2023-03-14T07:20:22;100013.28;;;6.90;44.88
76858;BME280;65830;0.000;0.000;2023-03-14T07:22:49;100016.72;;;7.16;43.94
76858;BME280;65830;0.000;0.000;2023-03-14T07:25:18;100010.09;;;7.24;43.82
76858;BME280;65830;0.000;0.000;2023-03-14T07:27:44;100006.03;;;7.31;43.73
76858;BME280;65830;0.000;0.000;2023-03-14T07:30:10;100009.94;;;7.38;43.79
76858;BME280;65830;0.000;0.000;2023-03-14T07:32:35;100002.44;;;7.32;44.16
76858;BME280;65830;0.000;0.000;2023-03-14T07:35:01;100005.97;;;7.56;42.77
76858;BME280;65830;0.000;0.000;2023-03-14T07:37:27;100010.97;;;7.72;43.48
76858;BME280;65830;0.000;0.000;2023-03-14T07:39:52;100002.53;;;7.91;42.13
76858;BME280;65830;0.000;0.000;2023-03-14T07:42:22;100008.47;;;8.06;41.82
76858;BME280;65830;0.000;0.000;2023-03-14T07:44:58;100005.38;;;8.12;41.04
76858;BME280;65830;0.000;0.000;2023-03-14T07:47:23;100002.09;;;7.98;41.03
76858;BME280;65830;0.000;0.000;2023-03-14T07:49:49;99995.28;;;7.82;41.82
76858;BME280;65830;0.000;0.000;2023-03-14T07:52:14;99994.16;;;7.98;41.75
76858;BME280;65830;0.000;0.000;2023-03-14T07:54:40;99989.88;;;8.08;41.10
76858;BME280;65830;0.000;0.000;2023-03-14T07:57:05;99992.50;;;8.08;41.45
76858;BME280;65830;0.000;0.000;2023-03-14T07:59:31;99988.06;;;8.08;41.19
76858;BME280;65830;0.000;0.000;2023-03-14T08:01:56;99985.97;;;8.36;40.93
76858;BME280;65830;0.000;0.000;2023-03-14T08:04:22;99984.72;;;8.42;40.99
76858;BME280;65830;0.000;0.000;2023-03-14T08:06:47;99993.50;;;8.53;40.94
76858;BME280;65830;0.000;0.000;2023-03-14T08:09:13;99988.34;;;8.63;40.49
76858;BME280;65830;0.000;0.000;2023-03-14T08:11:38;99986.41;;;8.43;41.20
76858;BME280;65830;0.000;0.000;2023-03-14T08:14:04;99981.88;;;8.67;40.91
76858;BME280;65830;0.000;0.000;2023-03-14T08:16:29;99970.56;;;8.88;40.19
76858;BME280;65830;0.000;0.000;2023-03-14T08:18:55;99972.63;;;8.84;39.51
76858;BME280;65830;0.000;0.000;2023-03-14T08:21:21;99983.69;;;8.89;39.46
76858;BME280;65830;0.000;0.000;2023-03-14T08:23:46;99973.47;;;8.96;39.52
76858;BME280;65830;0.000;0.000;2023-03-14T08:26:12;99977.53;;;8.89;39.63
76858;BME280;65830;0.000;0.000;2023-03-14T08:28:37;99965.03;;;9.02;39.52
76858;BME280;65830;0.000;0.000;2023-03-14T08:31:03;99962.84;;;9.07;38.59
76858;BME280;65830;0.000;0.000;2023-03-14T08:33:29;99963.59;;;8.98;38.95
76858;BME280;65830;0.000;0.000;2023-03-14T08:35:58;99969.97;;;9.07;39.01
76858;BME280;65830;0.000;0.000;2023-03-14T08:38:24;99959.00;;;9.11;38.88
76858;BME280;65830;0.000;0.000;2023-03-14T08:40:54;99949.72;;;9.28;38.22
76858;BME280;65830;0.000;0.000;2023-03-14T08:43:20;99956.53;;;9.53;38.22
76858;BME280;65830;0.000;0.000;2023-03-14T08:45:45;99951.53;;;9.71;37.89
76858;BME280;65830;0.000;0.000;2023-03-14T08:48:11;99954.38;;;9.80;37.23
76858;BME280;65830;0.000;0.000;2023-03-14T08:50:36;99938.41;;;9.70;37.03
76858;BME280;65830;0.000;0.000;2023-03-14T08:53:02;99933.34;;;9.67;37.25
76858;BME280;65830;0.000;0.000;2023-03-14T08:55:27;99927.97;;;9.89;36.80
76858;BME280;65830;0.000;0.000;2023-03-14T08:57:53;99925.97;;;9.49;37.54
76858;BME280;65830;0.000;0.000;2023-03-14T09:00:19;99914.09;;;9.65;36.63
76858;BME280;65830;0.000;0.000;2023-03-14T09:02:44;99913.72;;;9.69;37.27
76858;BME280;65830;0.000;0.000;2023-03-14T09:05:10;99908.78;;;9.65;36.51
76858;BME280;65830;0.000;0.000;2023-03-14T09:07:36;99900.91;;;9.53;36.81
76858;BME280;65830;0.000;0.000;2023-03-14T09:10:02;99885.59;;;9.78;36.76
76858;BME280;65830;0.000;0.000;2023-03-14T09:12:28;99882.75;;;9.91;36.29
76858;BME280;65830;0.000;0.000;2023-03-14T09:14:53;99885.41;;;10.12;35.68
76858;BME280;65830;0.000;0.000;2023-03-14T09:17:19;99878.75;;;10.39;34.61
76858;BME280;65830;0.000;0.000;2023-03-14T09:19:44;99870.28;;;10.45;34.48
76858;BME280;65830;0.000;0.000;2023-03-14T09:22:10;99879.84;;;10.15;35.01
76858;BME280;65830;0.000;0.000;2023-03-14T09:24:35;99868.13;;;9.54;36.01
76858;BME280;65830;0.000;0.000;2023-03-14T09:27:01;99855.59;;;9.57;36.42
76858;BME280;65830;0.000;0.000;2023-03-14T09:29:27;99861.59;;;9.59;36.45
76858;BME280;65830;0.000;0.000;2023-03-14T09:31:52;99848.22;;;10.02;35.62
76858;BME280;65830;0.000;0.000;2023-03-14T09:34:18;99847.91;;;10.38;34.42
76858;BME280;65830;0.000;0.000;2023-03-14T09:36:44;99842.22;;;10.52;33.92
76858;BME280;65830;0.000;0.000;2023-03-14T09:39:10;99839.47;;;10.63;34.18
76858;BME280;65830;0.000;0.000;2023-03-14T09:41:39;99836.03;;;10.72;33.77
76858;BME280;65830;0.000;0.000;2023-03-14T09:46:31;99833.53;;;10.81;34.57
76858;BME280;65830;0.000;0.000;2023-03-14T09:48:58;99836.75;;;10.94;34.09
76858;BME280;65830;0.000;0.000;2023-03-14T09:51:24;99832.28;;;10.95;33.52
76858;BME280;65830;0.000;0.000;2023-03-14T09:53:51;99822.44;;;10.66;34.16
76858;BME280;65830;0.000;0.000;2023-03-14T09:58:44;99824.72;;;10.80;33.67
76858;BME280;65830;0.000;0.000;2023-03-14T10:01:11;99826.53;;;10.89;34.33
76858;BME280;65830;0.000;0.000;2023-03-14T10:03:38;99819.84;;;10.95;34.89
76858;BME280;65830;0.000;0.000;2023-03-14T10:06:10;99809.25;;;11.15;34.34
76858;BME280;65830;0.000;0.000;2023-03-14T10:08:38;99812.31;;;11.20;33.45
76858;BME280;65830;0.000;0.000;2023-03-14T10:11:04;99808.97;;;11.27;33.25
76858;BME280;65830;0.000;0.000;2023-03-14T10:13:29;99797.50;;;11.17;33.38
76858;BME280;65830;0.000;0.000;2023-03-14T10:16:04;99787.44;;;11.21;32.84
76858;BME280;65830;0.000;0.000;2023-03-14T10:18:31;99783.41;;;11.26;33.28
76858;BME280;65830;0.000;0.000;2023-03-14T10:21:03;99782.69;;;11.44;33.38
76858;BME280;65830;0.000;0.000;2023-03-14T10:23:30;99774.16;;;11.40;33.57
76858;BME280;65830;0.000;0.000;2023-03-14T10:28:52;99758.97;;;10.33;35.34
76858;BME280;65830;0.000;0.000;2023-03-14T10:31:17;99748.09;;;10.37;35.72
76858;BME280;65830;0.000;0.000;2023-03-14T10:33:43;99747.50;;;10.33;35.71
76858;BME280;65830;0.000;0.000;2023-03-14T10:36:23;99738.19;;;10.39;35.78
76858;BME280;65830;0.000;0.000;2023-03-14T10:38:51;99739.78;;;10.90;35.20
76858;BME280;65830;0.000;0.000;2023-03-14T10:41:26;99741.03;;;11.15;35.02
76858;BME280;65830;0.000;0.000;2023-03-14T10:43:53;99729.94;;;11.59;34.32
76858;BME280;65830;0.000;0.000;2023-03-14T10:46:19;99725.25;;;11.80;33.97
76858;BME280;65830;0.000;0.000;2023-03-14T10:49:04;99707.38;;;11.72;33.77
76858;BME280;65830;0.000;0.000;2023-03-14T10:51:31;99705.97;;;11.78;33.80
76858;BME280;65830;0.000;0.000;2023-03-14T10:56:22;99695.00;;;12.19;32.84
76858;BME280;65830;0.000;0.000;2023-03-14T10:58:49;99689.81;;;12.27;32.54
76858;BME280;65830;0.000;0.000;2023-03-14T11:06:36;99672.59;;;12.85;31.66
76858;BME280;65830;0.000;0.000;2023-03-14T11:09:07;99659.47;;;12.91;31.50
76858;BME280;65830;0.000;0.000;2023-03-14T11:11:36;99649.91;;;12.99;31.42
76858;BME280;65830;0.000;0.000;2023-03-14T11:14:11;99652.81;;;13.58;30.85
76858;BME280;65830;0.000;0.000;2023-03-14T11:19:09;99633.03;;;13.16;31.14
76858;BME280;65830;0.000;0.000;2023-03-14T11:31:57;99592.06;;;14.45;29.55
76858;BME280;65830;0.000;0.000;2023-03-14T11:39:17;99572.75;;;15.48;28.01
76858;BME280;65830;0.000;0.000;2023-03-14T11:41:47;99569.94;;;15.33;27.78
76858;BME280;65830;0.000;0.000;2023-03-14T11:46:41;99559.78;;;15.76;27.47
76858;BME280;65830;0.000;0.000;2023-03-14T11:49:15;99543.19;;;16.12;27.33
76858;BME280;65830;0.000;0.000;2023-03-14T11:51:46;99543.75;;;15.60;27.53
76858;BME280;65830;0.000;0.000;2023-03-14T11:54:14;99526.44;;;16.94;26.49
76858;BME280;65830;0.000;0.000;2023-03-14T11:56:52;99515.69;;;17.54;25.53
76858;BME280;65830;0.000;0.000;2023-03-14T12:01:50;99509.59;;;19.24;23.63
76858;BME280;65830;0.000;0.000;2023-03-14T12:06:51;99487.81;;;17.84;25.08
76858;BME280;65830;0.000;0.000;2023-03-14T12:09:18;99483.09;;;18.08;25.23
76858;BME280;65830;0.000;0.000;2023-03-14T12:11:52;99467.53;;;18.25;24.73
76858;BME280;65830;0.000;0.000;2023-03-14T12:14:29;99457.53;;;20.27;22.94
76858;BME280;65830;0.000;0.000;2023-03-14T12:17:04;99452.13;;;20.13;22.93
76858;BME280;65830;0.000;0.000;2023-03-14T12:19:31;99442.22;;;21.77;22.15
76858;BME280;65830;0.000;0.000;2023-03-14T12:22:00;99446.66;;;23.16;20.58
76858;BME280;65830;0.000;0.000;2023-03-14T12:24:31;99445.75;;;23.04;20.35
76858;BME280;65830;0.000;0.000;2023-03-14T12:26:59;99431.22;;;23.95;19.15
76858;BME280;65830;0.000;0.000;2023-03-14T12:29:25;99434.97;;;24.95;18.72
76858;BME280;65830;0.000;0.000;2023-03-14T12:34:26;99418.78;;;26.66;17.14
76858;BME280;65830;0.000;0.000;2023-03-14T12:42:05;99408.28;;;26.75;17.30
76858;BME280;65830;0.000;0.000;2023-03-14T12:44:40;99404.63;;;27.30;16.94
76858;BME280;65830;0.000;0.000;2023-03-14T12:49:44;99389.75;;;27.65;16.50
76858;BME280;65830;0.000;0.000;2023-03-14T12:52:13;99403.16;;;27.23;16.67
76858;BME280;65830;0.000;0.000;2023-03-14T12:54:41;99396.63;;;27.46;16.61
76858;BME280;65830;0.000;0.000;2023-03-14T12:59:51;99390.50;;;29.10;15.41
76858;BME280;65830;0.000;0.000;2023-03-14T13:02:21;99377.03;;;30.13;14.54
76858;BME280;65830;0.000;0.000;2023-03-14T13:08:03;99381.00;;;30.77;13.92
76858;BME280;65830;0.000;0.000;2023-03-14T13:12:52;99376.13;;;30.64;14.35
76858;BME280;65830;0.000;0.000;2023-03-14T13:17:45;99367.81;;;29.10;14.79
76858;BME280;65830;0.000;0.000;2023-03-14T13:20:33;99353.72;;;29.44;14.77
76858;BME280;65830;0.000;0.000;2023-03-14T13:22:57;99355.56;;;28.60;15.26
76858;BME280;65830;0.000;0.000;2023-03-14T13:25:23;99350.81;;;27.97;15.79
76858;BME280;65830;0.000;0.000;2023-03-14T13:27:49;99350.13;;;28.17;15.39
76858;BME280;65830;0.000;0.000;2023-03-14T13:30:22;99344.22;;;27.33;15.82
76858;BME280;65830;0.000;0.000;2023-03-14T13:32:49;99341.44;;;26.84;16.07
76858;BME280;65830;0.000;0.000;2023-03-14T13:35:19;99339.16;;;26.37;16.77
76858;BME280;65830;0.000;0.000;2023-03-14T13:37:45;99331.91;;;27.09;16.80
76858;BME280;65830;0.000;0.000;2023-03-14T13:40:24;99316.72;;;28.00;15.43
76858;BME280;65830;0.000;0.000;2023-03-14T13:42:58;99319.72;;;28.41;15.71
76858;BME280;65830;0.000;0.000;2023-03-14T13:45:24;99304.91;;;28.84;14.82
76858;BME280;65830;0.000;0.000;2023-03-14T13:47:51;99304.84;;;28.69;15.08
76858;BME280;65830;0.000;0.000;2023-03-14T13:50:17;99296.81;;;29.10;14.79
76858;BME280;65830;0.000;0.000;2023-03-14T13:52:43;99300.97;;;29.69;14.73
76858;BME280;65830;0.000;0.000;2023-03-14T13:55:16;99291.41;;;29.92;14.34
76858;BME280;65830;0.000;0.000;2023-03-14T13:57:43;99296.06;;;30.93;13.56
76858;BME280;65830;0.000;0.000;2023-03-14T14:00:17;99274.88;;;31.08;13.89
76858;BME280;65830;0.000;0.000;2023-03-14T14:02:46;99270.53;;;31.76;12.95
76858;BME280;65830;0.000;0.000;2023-03-14T14:08:02;99259.59;;;32.05;13.06
76858;BME280;65830;0.000;0.000;2023-03-14T14:10:29;99248.09;;;31.69;12.81
76858;BME280;65830;0.000;0.000;2023-03-14T14:12:57;99240.44;;;31.32;13.20
76858;BME280;65830;0.000;0.000;2023-03-14T14:15:28;99238.91;;;31.84;13.14
76858;BME280;65830;0.000;0.000;2023-03-14T14:18:00;99235.91;;;32.34;12.38
76858;BME280;65830;0.000;0.000;2023-03-14T14:20:31;99237.56;;;32.97;12.31
76858;BME280;65830;0.000;0.000;2023-03-14T14:23:03;99239.66;;;32.43;12.19
76858;BME280;65830;0.000;0.000;2023-03-14T14:25:29;99228.44;;;32.39;12.41
76858;BME280;65830;0.000;0.000;2023-03-14T14:27:55;99223.19;;;30.97;13.15
76858;BME280;65830;0.000;0.000;2023-03-14T14:32:47;99218.00;;;30.85;13.35